Time;durP1;ratioP1;P1;durP2;ratioP2;P2;SDS_P1;SDS_P2;PMS_P1;PMS_P2;Temp;Humidity;BMP_temperature;BMP_pressure;BME280_temperature;BME280_humidity;BME280_pressure;Samples;Min_cycle;Max_cycle;Signal;HPM_P1;HPM_P2
2022/06/12 04:31:53;;;;;;;;;2.00;1.00;;;;;19.49;48.70;102041.91;5038950;27;45535;-72
2022/06/12 04:34:26;;;;;;;;;1.75;1.75;;;;;19.58;48.46;102052.19;5034906;28;45908;-71
2022/06/12 04:36:57;;;;;;;;;3.25;1.50;;;;;19.60;48.14;102058.44;5034769;28;45340;-70
2022/06/12 04:39:27;;;;;;;;;2.75;1.00;;;;;19.62;47.97;102053.78;5017047;28;45938;-72
2022/06/12 04:41:53;;;;;;;;;3.00;2.00;;;;;19.67;48.15;102056.19;5036064;28;45490;-71
2022/06/12 04:44:19;;;;;;;;;3.00;1.25;;;;;19.68;48.06;102055.22;5017154;28;46162;-70
2022/06/12 04:46:48;;;;;;;;;1.75;0.75;;;;;19.66;48.39;102052.59;5034550;28;45261;-71
2022/06/12 04:49:17;;;;;;;;;1.75;1.75;;;;;19.71;48.08;102052.31;5035026;28;45336;-72
2022/06/12 04:51:43;;;;;;;;;0.75;0.75;;;;;19.68;48.17;102039.78;5035455;28;45366;-71
2022/06/12 04:54:08;;;;;;;;;4.00;3.00;;;;;19.69;47.89;102024.31;5016960;28;47399;-72
2022/06/12 04:56:34;;;;;;;;;2.00;2.00;;;;;19.77;47.95;102049.19;5035408;28;46293;-73
2022/06/12 04:59:01;;;;;;;;;1.00;1.00;;;;;19.78;47.63;102040.94;5035690;28;45455;-73
2022/06/12 05:01:27;;;;;;;;;3.25;1.25;;;;;19.81;47.72;102040.75;5035245;28;45395;-71
2022/06/12 05:03:52;;;;;;;;;2.00;1.00;;;;;19.84;47.26;102043.25;5034351;28;45674;-71
2022/06/12 05:06:18;;;;;;;;;2.50;1.00;;;;;19.84;47.84;102035.09;5034891;28;46246;-70
2022/06/12 05:08:46;;;;;;;;;1.00;1.00;;;;;19.88;47.70;102041.22;5035451;28;45376;-72
2022/06/12 05:11:12;;;;;;;;;1.00;1.00;;;;;19.90;47.93;102040.16;5034803;28;45332;-71
2022/06/12 05:13:39;;;;;;;;;1.00;1.00;;;;;19.89;47.56;102032.09;5034896;28;45229;-71
2022/06/12 05:16:05;;;;;;;;;0.50;0.50;;;;;19.85;47.41;102020.53;5016462;28;46423;-72
2022/06/12 05:18:30;;;;;;;;;2.00;1.75;;;;;19.94;47.34;102030.81;5034545;28;45435;-72
2022/06/12 05:20:57;;;;;;;;;1.75;1.75;;;;;19.97;46.80;102041.53;5034745;28;45478;-72
2022/06/12 05:23:23;;;;;;;;;1.00;1.00;;;;;19.99;46.76;102031.38;5008349;28;45445;-71
2022/06/12 05:25:49;;;;;;;;;2.00;1.00;;;;;20.02;46.46;102030.31;5034059;28;46680;-72
2022/06/12 05:28:17;;;;;;;;;1.75;1.75;;;;;20.03;46.68;102027.50;5034543;28;45221;-72
2022/06/12 05:30:43;;;;;;;;;1.00;1.00;;;;;20.07;46.31;102024.59;5034526;28;45471;-71
2022/06/12 05:33:10;;;;;;;;;1.25;1.25;;;;;20.06;46.50;102022.84;5026207;28;45531;-71
2022/06/12 05:35:38;;;;;;;;;3.50;0.50;;;;;20.07;46.52;102030.03;5014194;28;47781;-73
2022/06/12 05:38:07;;;;;;;;;0.50;0.50;;;;;20.03;46.49;102034.78;5014384;28;45388;-73
2022/06/12 05:40:35;;;;;;;;;2.75;0.75;;;;;20.06;46.67;102034.59;5011571;28;45277;-73
2022/06/12 05:43:01;;;;;;;;;2.50;1.50;;;;;20.09;46.70;102044.41;5034226;28;45321;-71
2022/06/12 05:45:29;;;;;;;;;4.00;1.00;;;;;20.07;46.63;102030.03;5034108;28;46286;-71
2022/06/12 05:48:12;;;;;;;;;3.75;1.00;;;;;20.05;46.71;102038.28;5034151;28;45259;-72
2022/06/12 05:50:50;;;;;;;;;2.25;0.50;;;;;20.09;46.71;102039.81;5034802;28;45428;-72
2022/06/12 05:53:16;;;;;;;;;3.00;1.00;;;;;20.09;46.70;102047.13;5016501;28;46040;-72
2022/06/12 05:55:44;;;;;;;;;1.00;1.00;;;;;19.89;46.74;102024.81;5033728;28;46412;-73
2022/06/12 05:58:09;;;;;;;;;2.75;1.25;;;;;20.07;46.66;102043.66;5016469;28;45385;-72
2022/06/12 06:00:35;;;;;;;;;1.00;1.00;;;;;20.06;46.45;102048.22;5034004;28;45309;-71
2022/06/12 06:03:00;;;;;;;;;0.50;0.50;;;;;20.07;46.31;102049.97;5015602;28;47456;-72
2022/06/12 06:05:26;;;;;;;;;1.25;1.25;;;;;20.10;46.06;102051.59;5033536;28;45312;-71
2022/06/12 06:07:52;;;;;;;;;3.00;2.00;;;;;20.14;45.97;102064.06;5033576;28;45384;-71
2022/06/12 06:10:22;;;;;;;;;1.50;1.00;;;;;20.13;46.04;102052.28;5016138;28;45786;-72
2022/06/12 06:12:48;;;;;;;;;3.00;1.75;;;;;20.15;46.27;102065.81;5033733;28;45563;-74
2022/06/12 06:15:14;;;;;;;;;1.00;1.00;;;;;20.12;45.60;102066.88;5033996;28;45380;-75
2022/06/12 06:17:40;;;;;;;;;4.25;1.75;;;;;20.15;45.59;102065.81;5033707;28;45367;-73
2022/06/12 06:20:07;;;;;;;;;0.50;0.50;;;;;20.15;45.39;102060.34;5033907;28;45424;-73
2022/06/12 06:22:32;;;;;;;;;1.50;1.50;;;;;20.15;45.41;102073.97;5015748;28;47649;-71
2022/06/12 06:24:58;;;;;;;;;2.00;1.25;;;;;20.20;45.73;102063.63;5031162;28;46041;-71
2022/06/12 06:27:24;;;;;;;;;1.25;1.25;;;;;20.20;45.75;102053.63;5033563;28;45375;-74
2022/06/12 06:29:49;;;;;;;;;2.50;1.75;;;;;20.31;45.52;102066.53;5034077;28;45477;-74
2022/06/12 06:32:15;;;;;;;;;2.00;1.00;;;;;20.22;45.15;102054.41;5032184;28;45209;-74
2022/06/12 06:34:40;;;;;;;;;2.50;2.00;;;;;20.31;45.11;102066.53;5013640;28;45401;-75
2022/06/12 06:37:08;;;;;;;;;2.50;1.00;;;;;20.30;45.76;102071.13;5013890;28;45277;-73
2022/06/12 06:39:35;;;;;;;;;1.75;1.75;;;;;20.39;45.58;102069.66;5013839;28;45559;-72
2022/06/12 06:42:00;;;;;;;;;1.00;1.00;;;;;20.42;44.95;102076.75;5013817;28;45577;-75
2022/06/12 06:47:11;;;;;;;;;1.75;0.00;;;;;20.28;45.94;102062.16;5033696;28;45464;-75
2022/06/12 06:49:37;;;;;;;;;2.25;1.50;;;;;20.37;45.21;102069.78;5033900;28;45431;-76
2022/06/12 06:52:03;;;;;;;;;3.25;1.00;;;;;20.32;45.51;102068.31;5034555;28;45555;-74
2022/06/12 06:54:29;;;;;;;;;1.00;1.00;;;;;20.31;45.55;102061.09;5033055;28;47455;-75
2022/06/12 06:56:55;;;;;;;;;1.00;1.00;;;;;20.40;45.70;102071.44;5033231;28;45395;-75
2022/06/12 06:59:20;;;;;;;;;0.75;0.75;;;;;20.40;45.40;102057.81;5035447;28;45487;-72
2022/06/12 07:01:46;;;;;;;;;1.00;1.00;;;;;20.35;44.65;102071.72;5037057;28;45418;-76
2022/06/12 07:04:12;;;;;;;;;3.50;2.00;;;;;20.34;45.46;102066.34;5036594;28;45851;-75
2022/06/12 07:06:37;;;;;;;;;2.00;1.25;;;;;20.46;45.16;102071.00;5036632;28;45298;-75
2022/06/12 07:09:04;;;;;;;;;1.00;1.00;;;;;20.51;45.03;102078.88;5036733;28;45258;-75
2022/06/12 07:11:30;;;;;;;;;1.75;1.75;;;;;20.60;44.82;102076.41;5018526;28;45398;-75
2022/06/12 07:13:58;;;;;;;;;2.75;0.75;;;;;20.63;44.70;102081.66;5036322;28;46189;-74
2022/06/12 07:16:25;;;;;;;;;1.00;1.00;;;;;20.70;44.52;102082.13;5036077;28;45392;-74
2022/06/12 07:18:51;;;;;;;;;1.00;1.00;;;;;20.60;44.34;102073.69;5036955;28;45193;-75
2022/06/12 07:21:17;;;;;;;;;0.00;0.00;;;;;20.55;44.82;102073.13;5036185;28;45183;-75
2022/06/12 07:23:42;;;;;;;;;3.00;1.25;;;;;20.63;44.07;102080.78;5036361;28;45950;-74
2022/06/12 07:26:34;;;;;;;;;1.75;1.75;;;;;20.67;43.93;102072.28;5032756;28;45230;-75
2022/06/12 07:29:00;;;;;;;;;1.00;1.00;;;;;20.71;43.63;102062.94;5036393;28;45336;-73
2022/06/12 07:31:26;;;;;;;;;4.25;1.00;;;;;20.84;43.27;102073.88;5035816;28;45571;-74
2022/06/12 07:33:52;;;;;;;;;1.00;1.00;;;;;20.93;43.60;102077.81;5023306;28;45337;-74
2022/06/12 07:36:21;;;;;;;;;4.00;1.00;;;;;20.92;42.99;102073.38;5016398;28;45357;-74
2022/06/12 07:38:49;;;;;;;;;3.25;2.00;;;;;20.96;43.36;102073.06;5018330;28;45365;-76
2022/06/12 07:41:16;;;;;;;;;1.00;1.00;;;;;21.03;43.10;102085.28;5018010;28;45376;-75
2022/06/12 07:43:43;;;;;;;;;1.00;1.00;;;;;21.02;42.86;102083.53;5014729;28;47380;-75
2022/06/12 07:46:11;;;;;;;;;2.50;2.50;;;;;21.04;42.43;102078.84;5014651;28;45488;-74
2022/06/12 07:48:38;;;;;;;;;1.50;1.50;;;;;21.09;42.96;102089.47;5016030;28;45400;-75
2022/06/12 07:51:05;;;;;;;;;3.75;1.00;;;;;21.02;42.50;102074.47;5016180;28;45413;-72
2022/06/12 07:53:33;;;;;;;;;1.25;1.25;;;;;21.02;42.08;102079.94;5015535;28;46227;-72
2022/06/12 07:55:59;;;;;;;;;1.50;1.50;;;;;21.08;42.54;102085.84;5015580;28;45387;-73
2022/06/12 07:58:26;;;;;;;;;0.50;0.50;;;;;21.05;42.31;102074.28;5016604;28;45518;-72
2022/06/12 08:00:55;;;;;;;;;2.50;1.50;;;;;21.05;42.81;102074.28;5000729;28;45475;-72
2022/06/12 08:03:21;;;;;;;;;2.00;2.00;;;;;21.03;42.29;102066.19;5017660;28;45795;-74
2022/06/12 08:05:47;;;;;;;;;2.00;2.00;;;;;21.05;42.43;102077.00;5017894;28;45324;-72
2022/06/12 08:08:13;;;;;;;;;0.00;0.00;;;;;21.06;42.41;102076.03;5033390;28;45195;-73
2022/06/12 08:10:38;;;;;;;;;1.00;1.00;;;;;21.08;42.97;102072.22;5034226;28;45510;-72
2022/06/12 08:13:10;;;;;;;;;1.00;1.00;;;;;21.17;42.30;102078.03;5035508;28;46034;-74
2022/06/12 08:15:37;;;;;;;;;2.75;0.75;;;;;21.18;42.81;102075.19;5035914;28;45245;-74
2022/06/12 08:18:04;;;;;;;;;1.00;1.00;;;;;21.18;42.87;102071.63;5017613;28;45334;-75
2022/06/12 08:20:32;;;;;;;;;2.50;1.00;;;;;21.19;42.88;102057.84;5035866;28;45230;-75
2022/06/12 08:23:26;;;;;;;;;1.50;1.50;;;;;21.27;43.30;102068.22;5035276;28;45473;-74
2022/06/12 08:25:53;;;;;;;;;1.00;1.00;;;;;21.32;42.90;102068.81;5033060;28;45359;-73
2022/06/12 08:28:18;;;;;;;;;3.25;1.75;;;;;21.34;42.84;102066.84;5035664;28;45361;-75
2022/06/12 08:30:44;;;;;;;;;1.00;1.00;;;;;21.36;43.09;102059.41;5034824;28;45380;-74
2022/06/12 08:33:09;;;;;;;;;0.50;0.50;;;;;21.34;42.83;102064.13;5028411;28;45363;-73
2022/06/12 08:35:36;;;;;;;;;3.75;1.50;;;;;21.08;43.40;102036.78;5016252;28;45352;-73
2022/06/12 08:38:01;;;;;;;;;2.50;2.50;;;;;21.20;43.71;102056.88;5015664;28;45242;-74
2022/06/12 08:40:38;;;;;;;;;1.25;1.25;;;;;21.17;43.74;102064.38;5015973;28;45510;-73
2022/06/12 08:43:22;;;;;;;;;5.00;2.25;;;;;21.23;43.88;102067.59;5014680;28;45405;-74
2022/06/12 08:45:50;;;;;;;;;4.25;1.75;;;;;21.29;43.44;102050.78;5015048;28;45495;-74
2022/06/12 08:48:35;;;;;;;;;1.00;1.00;;;;;21.33;43.80;102054.19;5014375;28;45459;-73
2022/06/12 08:51:10;;;;;;;;;2.00;2.00;;;;;21.39;44.18;102054.63;5014956;28;45345;-76
2022/06/12 08:54:12;;;;;;;;;2.00;2.00;;;;;21.39;43.97;102042.81;5014232;28;46175;-74
2022/06/12 08:56:49;;;;;;;;;2.00;2.00;;;;;21.51;43.15;102051.03;5015138;28;45274;-74
2022/06/12 08:59:21;;;;;;;;;1.50;1.50;;;;;21.56;42.83;102045.22;5015198;28;45457;-75
2022/06/12 09:01:47;;;;;;;;;1.75;1.75;;;;;21.59;42.45;102038.69;5014777;28;45344;-73
2022/06/12 09:04:16;;;;;;;;;1.75;1.75;;;;;21.62;42.79;102039.31;5014977;28;45808;-73
2022/06/12 09:06:50;;;;;;;;;2.00;2.00;;;;;21.69;42.55;102031.59;5018635;28;45304;-73
2022/06/12 09:09:23;;;;;;;;;4.00;1.75;;;;;21.75;42.80;102042.94;5034968;28;45317;-74
2022/06/12 09:12:07;;;;;;;;;1.75;0.50;;;;;21.76;42.35;102043.81;5034975;28;45355;-74
2022/06/12 09:14:52;;;;;;;;;0.00;0.00;;;;;21.75;41.48;102028.41;5016841;28;47479;-74
2022/06/12 09:17:21;;;;;;;;;3.00;1.50;;;;;21.67;41.06;102030.81;5035182;28;45344;-73
2022/06/12 09:20:06;;;;;;;;;2.00;1.00;;;;;21.62;41.88;102030.25;5035077;28;45394;-75
2022/06/12 09:22:54;;;;;;;;;1.25;1.25;;;;;21.62;41.28;102022.06;5033931;28;45309;-74
2022/06/12 09:25:32;;;;;;;;;1.00;1.00;;;;;21.52;41.50;102030.06;5031556;28;46036;-74
2022/06/12 09:28:11;;;;;;;;;1.00;1.00;;;;;21.62;40.79;102035.72;5035435;28;45250;-73
2022/06/12 09:30:49;;;;;;;;;2.00;1.25;;;;;21.66;40.71;102038.13;5035543;28;45453;-73
2022/06/12 09:33:23;;;;;;;;;0.25;0.25;;;;;21.72;41.05;102034.97;5022006;28;45417;-73
2022/06/12 09:36:24;;;;;;;;;1.75;1.00;;;;;21.78;40.68;102022.72;5034338;28;46397;-74
2022/06/12 09:39:09;;;;;;;;;0.75;0.75;;;;;21.82;41.52;102036.03;5034412;28;45531;-73
2022/06/12 09:41:34;;;;;;;;;1.00;1.00;;;;;;;;5034947;28;45175;-73
2022/06/12 09:44:14;;;;;;;;;2.25;1.25;;;;;21.92;40.81;102036.25;5034293;28;45162;-74
2022/06/12 09:46:40;;;;;;;;;1.25;1.25;;;;;21.97;39.78;102041.38;5034352;28;46402;-75
2022/06/12 09:49:11;;;;;;;;;1.75;1.75;;;;;22.01;40.24;102041.06;5034105;28;45533;-74
2022/06/12 09:51:52;;;;;;;;;2.50;2.00;;;;;22.00;40.79;102031.13;5034507;28;45541;-73
2022/06/12 09:54:44;;;;;;;;;2.50;1.25;;;;;21.99;40.37;102034.84;5034019;28;45219;-75
2022/06/12 09:57:34;;;;;;;;;1.25;1.25;;;;;21.95;41.29;102037.91;5033969;28;46468;-74
2022/06/12 10:00:16;;;;;;;;;0.25;0.25;;;;;21.93;40.60;102035.28;5016056;28;45359;-73
2022/06/12 10:03:08;;;;;;;;;1.75;1.75;;;;;21.94;40.96;102034.28;5034072;28;45218;-74
2022/06/12 10:05:45;;;;;;;;;0.75;0.75;;;;;22.05;40.94;102042.59;5034181;28;45268;-74
2022/06/12 10:08:10;;;;;;;;;2.25;2.00;;;;;22.00;40.17;102038.44;5033353;28;45265;-74
2022/06/12 10:10:43;;;;;;;;;2.00;1.75;;;;;21.99;40.72;102034.84;5034096;28;45237;-74
2022/06/12 10:13:14;;;;;;;;;0.00;0.00;;;;;21.96;41.04;102024.09;5034076;28;45453;-75
2022/06/12 10:16:08;;;;;;;;;3.50;2.00;;;;;22.02;40.99;102036.50;5033872;28;45301;-74
2022/06/12 10:19:03;;;;;;;;;0.50;0.50;;;;;22.07;41.00;102031.53;5033974;28;46540;-75
2022/06/12 10:21:34;;;;;;;;;4.25;2.25;;;;;22.09;41.21;102027.72;5032323;28;45306;-74
2022/06/12 10:24:01;;;;;;;;;3.50;1.75;;;;;22.06;41.52;102018.88;5031823;28;45619;-75
2022/06/12 10:26:32;;;;;;;;;1.50;1.50;;;;;22.11;42.53;102023.03;5032707;28;45402;-74
2022/06/12 10:29:14;;;;;;;;;1.25;1.25;;;;;22.17;42.60;102025.28;5033494;28;45370;-76
2022/06/12 10:31:58;;;;;;;;;2.00;2.00;;;;;22.15;42.58;102012.72;5033040;28;45384;-73
2022/06/12 10:34:29;;;;;;;;;2.50;2.50;;;;;22.17;42.90;102003.44;5000071;28;45348;-77
2022/06/12 10:37:07;;;;;;;;;2.75;2.25;;;;;22.18;42.83;102005.19;5017274;28;45395;-77
2022/06/12 10:39:34;;;;;;;;;2.75;2.00;;;;;22.13;42.71;102015.56;5002872;28;47734;-76
2022/06/12 10:42:04;;;;;;;;;3.50;2.00;;;;;22.01;42.02;102016.50;5031151;28;45262;-75
2022/06/12 10:44:38;;;;;;;;;2.50;2.00;;;;;21.90;42.20;102014.50;5019785;28;45411;-76
2022/06/12 10:47:16;;;;;;;;;2.50;2.50;;;;;21.83;42.85;101994.09;5036519;28;45415;-75
2022/06/12 10:49:42;;;;;;;;;2.75;2.75;;;;;21.85;43.26;101985.81;5037070;28;45970;-75
2022/06/12 10:52:19;;;;;;;;;5.00;3.25;;;;;21.89;43.68;101981.84;5036722;28;45264;-75
2022/06/12 10:54:45;;;;;;;;;3.00;3.00;;;;;21.97;43.26;101994.94;5037167;28;45321;-77
2022/06/12 10:57:35;;;;;;;;;2.00;2.00;;;;;21.99;42.50;102003.94;5037064;28;45478;-73
2022/06/12 11:00:10;;;;;;;;;3.75;3.75;;;;;21.92;43.17;101986.22;5019071;28;46693;-77
2022/06/12 11:03:05;;;;;;;;;3.75;2.00;;;;;22.08;42.04;101987.75;5037328;28;45372;-78
2022/06/12 11:05:39;;;;;;;;;4.25;2.75;;;;;22.18;41.59;101980.59;5037451;28;45501;-77
2022/06/12 11:08:49;;;;;;;;;3.00;1.00;;;;;22.27;38.66;101979.91;5038568;28;45327;-77
2022/06/12 11:11:27;;;;;;;;;2.00;2.00;;;;;22.36;40.75;101983.81;5037862;28;45501;-76
2022/06/12 11:14:26;;;;;;;;;3.00;3.00;;;;;22.47;40.13;101989.31;5037370;28;45315;-80
2022/06/12 11:17:00;;;;;;;;;1.00;1.00;;;;;22.54;38.18;101982.38;4982236;28;45472;-77
2022/06/12 11:19:37;;;;;;;;;3.25;2.00;;;;;22.45;37.16;101968.59;5036617;28;45378;-77
2022/06/12 11:22:14;;;;;;;;;2.25;2.00;;;;;22.55;38.55;101969.59;5036804;28;45728;-75
2022/06/12 11:25:13;;;;;;;;;4.25;2.00;;;;;22.57;38.48;101964.88;5032738;28;45755;-74
2022/06/12 11:27:48;;;;;;;;;3.25;1.25;;;;;22.60;37.05;101951.88;5036561;28;45510;-79
2022/06/12 11:30:25;;;;;;;;;4.00;3.50;;;;;22.64;37.70;101944.28;5036542;28;45292;-74
2022/06/12 11:32:59;;;;;;;;;2.00;2.00;;;;;22.80;38.56;101954.94;5030596;28;45980;-77
2022/06/12 11:35:51;;;;;;;;;4.75;3.25;;;;;22.87;37.67;101946.16;5016167;28;45322;-75
2022/06/12 11:38:44;;;;;;;;;1.75;1.75;;;;;22.95;35.79;101949.16;5015622;28;45393;-76
2022/06/12 11:41:27;;;;;;;;;1.75;1.75;;;;;22.98;35.54;101937.06;5016483;28;45311;-74
2022/06/12 11:44:06;;;;;;;;;2.75;1.50;;;;;22.97;34.06;101936.22;5031367;28;46204;-76
2022/06/12 11:47:01;;;;;;;;;2.25;2.25;;;;;22.96;34.99;101930.88;5035511;28;45403;-76
2022/06/12 11:50:05;;;;;;;;;3.00;1.75;;;;;23.04;34.93;101933.88;5036069;28;45319;-75
2022/06/12 11:53:00;;;;;;;;;7.00;2.00;;;;;23.11;35.69;101926.91;5035657;28;45376;-76
2022/06/12 11:55:40;;;;;;;;;3.00;2.00;;;;;23.24;34.26;101921.31;5035451;28;45951;-75
2022/06/12 11:58:40;;;;;;;;;1.25;1.25;;;;;23.30;34.71;101920.84;5035984;28;45506;-79
2022/06/12 12:01:05;;;;;;;;;3.50;1.50;;;;;23.41;35.17;101915.34;5018739;28;45319;-77
2022/06/12 12:04:02;;;;;;;;;4.00;1.75;;;;;23.51;34.88;101926.47;5036603;28;45510;-80
2022/06/12 12:06:40;;;;;;;;;2.00;2.00;;;;;23.54;33.63;101910.66;4974709;28;46507;-76
2022/06/12 12:09:08;;;;;;;;;4.50;3.00;;;;;23.65;34.23;101909.75;5019496;28;45562;-77
2022/06/12 12:11:47;;;;;;;;;2.75;1.75;;;;;23.70;33.56;101908.41;5035800;28;45332;-76
2022/06/12 12:14:21;;;;;;;;;1.00;1.00;;;;;23.67;31.36;101916.88;5035500;28;45480;-75
2022/06/12 12:16:53;;;;;;;;;0.50;0.50;;;;;23.70;32.26;101910.28;5035655;28;45427;-76
2022/06/12 12:19:24;;;;;;;;;2.00;2.00;;;;;23.79;31.89;101908.66;5035266;28;45241;-76
2022/06/12 12:21:55;;;;;;;;;1.50;1.50;;;;;23.87;32.37;101889.69;5035379;28;45498;-75
2022/06/12 12:24:27;;;;;;;;;0.50;0.50;;;;;23.94;33.64;101893.66;5032301;28;45408;-76
2022/06/12 12:26:57;;;;;;;;;3.00;2.00;;;;;24.01;33.39;101890.28;5034978;28;46274;-77
2022/06/12 12:29:27;;;;;;;;;1.00;1.00;;;;;24.06;33.39;101888.03;5035200;28;45455;-73
2022/06/12 12:31:54;;;;;;;;;1.50;1.50;;;;;24.06;32.92;101890.78;5035151;28;45342;-72
2022/06/12 12:34:25;;;;;;;;;2.00;1.75;;;;;24.16;32.02;101890.84;5016227;28;46273;-73
2022/06/12 12:42:26;;;;;;;;;1.25;1.25;;;;;24.41;32.77;101879.53;5034960;28;45329;-73
2022/06/12 12:44:52;;;;;;;;;3.25;1.00;;;;;24.45;32.76;101875.56;5034885;28;45555;-71
2022/06/12 12:47:20;;;;;;;;;2.75;1.00;;;;;24.49;33.12;101878.91;5034587;28;45429;-73
2022/06/12 12:49:46;;;;;;;;;2.00;2.00;;;;;24.43;33.26;101866.59;5016535;28;45388;-74
2022/06/12 12:52:16;;;;;;;;;1.75;1.75;;;;;24.49;32.88;101877.03;5035118;28;45411;-76
2022/06/12 12:54:56;;;;;;;;;1.75;1.75;;;;;24.55;33.49;101875.63;5016644;28;47469;-76
2022/06/12 12:57:40;;;;;;;;;2.00;2.00;;;;;24.71;33.69;101870.53;5034174;28;46262;-74
2022/06/12 13:00:21;;;;;;;;;1.25;1.00;;;;;24.81;32.25;101867.88;5035368;28;45408;-75
2022/06/12 13:02:56;;;;;;;;;2.25;1.75;;;;;24.80;33.03;101868.88;5034794;28;45409;-74
2022/06/12 13:05:50;;;;;;;;;1.50;1.50;;;;;24.92;33.23;101870.56;5016516;28;45767;-77
2022/06/12 13:08:49;;;;;;;;;2.50;2.50;;;;;25.17;32.70;101861.03;5035460;28;46001;-78
2022/06/12 13:11:57;;;;;;;;;3.00;1.75;;;;;25.35;33.01;101858.50;5034656;28;45453;-74
2022/06/12 13:15:03;;;;;;;;;2.00;2.00;;;;;25.37;32.38;101838.09;4935207;28;45535;-77
2022/06/12 13:17:57;;;;;;;;;2.75;1.50;;;;;25.52;32.97;101838.59;5010972;28;45525;-77
2022/06/12 13:20:45;;;;;;;;;3.00;3.00;;;;;25.74;32.46;101868.59;5038253;28;45913;-79
2022/06/12 13:23:47;;;;;;;;;2.00;1.75;;;;;25.81;32.13;101863.41;5037483;28;45486;-77
2022/06/12 13:26:16;;;;;;;;;1.50;1.50;;;;;25.88;32.74;101848.09;4987249;28;45579;-78
2022/06/12 13:28:42;;;;;;;;;1.00;1.00;;;;;25.92;32.13;101838.56;5037318;28;45465;-77
2022/06/12 13:31:18;;;;;;;;;2.00;2.00;;;;;26.16;31.59;101849.13;5035862;28;46203;-77
2022/06/12 13:33:52;;;;;;;;;1.50;1.50;;;;;26.27;32.76;101847.16;5025296;28;45475;-77
2022/06/12 13:36:19;;;;;;;;;3.00;2.00;;;;;26.40;31.96;101845.97;5006358;28;45397;-77
2022/06/12 13:39:20;;;;;;;;;2.50;1.50;;;;;26.50;32.32;101844.06;5038096;28;45315;-76
2022/06/12 13:41:50;;;;;;;;;1.00;1.00;;;;;26.38;31.40;101816.72;5037267;28;46420;-78
2022/06/12 13:44:30;;;;;;;;;2.25;2.00;;;;;26.58;30.82;101852.47;5038379;28;45292;-78
2022/06/12 13:46:58;;;;;;;;;1.75;1.75;;;;;26.49;30.10;101831.34;5038313;28;45615;-77
2022/06/12 13:49:47;;;;;;;;;1.00;1.00;;;;;26.63;31.01;101844.63;5037574;28;45296;-77
2022/06/12 13:52:16;;;;;;;;;1.25;1.00;;;;;26.75;29.89;101830.56;5036861;28;45393;-77
2022/06/12 13:54:43;;;;;;;;;6.75;0.50;;;;;26.88;30.39;101832.97;5039245;28;45499;-75
2022/06/12 13:57:33;;;;;;;;;1.25;1.25;;;;;26.95;28.92;101830.53;5040640;28;45293;-77
2022/06/12 13:59:59;;;;;;;;;2.50;1.25;;;;;27.02;29.41;101823.41;5036928;28;45560;-77
2022/06/12 14:02:31;;;;;;;;;1.00;1.00;;;;;27.15;28.62;101823.91;5039427;28;45241;-77
2022/06/12 14:04:56;;;;;;;;;0.75;0.75;;;;;27.25;28.20;101827.50;5038503;28;45254;-77
2022/06/12 14:07:24;;;;;;;;;2.00;1.75;;;;;27.27;28.76;101810.84;5018577;28;45347;-77
2022/06/12 14:09:55;;;;;;;;;2.75;1.50;;;;;27.30;27.63;101816.91;5037099;28;45545;-77
2022/06/12 14:12:20;;;;;;;;;2.75;0.75;;;;;27.32;28.43;101809.34;5037050;28;46449;-76
2022/06/12 14:14:49;;;;;;;;;1.50;0.50;;;;;27.44;28.60;101813.63;5036864;28;45312;-77
2022/06/12 14:17:25;;;;;;;;;1.00;1.00;;;;;27.63;27.58;101825.59;5036908;28;45348;-76
2022/06/12 14:20:13;;;;;;;;;0.75;0.75;;;;;27.69;27.33;101813.94;5036124;28;45355;-77
2022/06/12 14:22:47;;;;;;;;;1.00;1.00;;;;;27.77;27.38;101816.78;5035785;28;45440;-76
2022/06/12 14:25:19;;;;;;;;;3.00;1.75;;;;;27.85;26.86;101823.25;5034945;28;45697;-76
2022/06/12 14:28:04;;;;;;;;;1.50;1.50;;;;;27.74;27.35;101817.09;5020578;28;45242;-78
2022/06/12 14:30:56;;;;;;;;;1.00;1.00;;;;;27.55;27.01;101815.34;5038684;28;46079;-77
2022/06/12 14:33:50;;;;;;;;;2.25;1.00;;;;;27.65;26.53;101812.50;4990377;28;45334;-77
2022/06/12 14:36:24;;;;;;;;;1.00;1.00;;;;;27.69;27.67;101805.69;5030230;28;45560;-77
2022/06/12 14:38:50;;;;;;;;;1.00;1.00;;;;;27.65;26.56;101809.75;5018116;28;45309;-77
2022/06/12 14:41:27;;;;;;;;;2.25;1.00;;;;;27.55;25.99;101798.81;5035836;28;45440;-77
2022/06/12 14:43:54;;;;;;;;;0.00;0.00;;;;;27.43;25.76;101802.75;5018680;28;47287;-76
2022/06/12 14:46:23;;;;;;;;;1.00;1.00;;;;;27.49;26.61;101800.25;5037862;28;45195;-76
2022/06/12 14:48:49;;;;;;;;;0.25;0.25;;;;;27.50;26.05;101776.31;5040012;28;45470;-78
2022/06/12 14:51:14;;;;;;;;;1.00;1.00;;;;;27.66;26.60;101779.28;5042087;28;45275;-77
2022/06/12 14:53:40;;;;;;;;;1.25;1.25;;;;;27.81;26.79;101783.25;5039784;28;45323;-77
2022/06/12 14:56:22;;;;;;;;;2.00;2.00;;;;;28.00;26.51;101771.19;5037960;28;45536;-78
2022/06/12 14:58:48;;;;;;;;;1.00;1.00;;;;;28.17;26.13;101777.72;5037340;28;45319;-78
2022/06/12 15:01:18;;;;;;;;;3.00;1.00;;;;;28.16;26.26;101784.28;5035013;28;45447;-76
2022/06/12 15:03:44;;;;;;;;;3.00;1.75;;;;;28.26;26.35;101787.81;5017853;28;46270;-77
2022/06/12 15:06:11;;;;;;;;;2.50;2.00;;;;;28.36;25.83;101777.56;5036505;28;45428;-77
2022/06/12 15:08:37;;;;;;;;;0.00;0.00;;;;;28.41;25.04;101777.91;5035061;28;45386;-77
2022/06/12 15:11:14;;;;;;;;;1.00;1.00;;;;;28.45;25.23;101782.09;5035262;28;45463;-77
2022/06/12 15:13:40;;;;;;;;;2.00;1.00;;;;;28.49;26.04;101771.63;5015645;28;45558;-78
2022/06/12 15:16:06;;;;;;;;;2.00;1.00;;;;;28.46;24.96;101775.56;5033313;28;45359;-77
2022/06/12 15:18:31;;;;;;;;;2.50;1.50;;;;;28.32;25.55;101751.34;5039738;28;45265;-77
2022/06/12 15:20:56;;;;;;;;;1.50;1.50;;;;;28.47;25.68;101780.06;5040412;28;45841;-77
2022/06/12 15:23:23;;;;;;;;;1.25;1.25;;;;;28.57;26.45;101764.25;5040105;28;45386;-77
2022/06/12 15:31:21;;;;;;;;;2.00;2.00;;;;;28.81;26.93;101762.72;5041261;28;45463;-77
2022/06/12 15:33:47;;;;;;;;;2.00;2.00;;;;;28.73;25.48;101752.47;5028211;28;46211;-78
2022/06/12 15:36:13;;;;;;;;;2.50;2.50;;;;;28.60;25.94;101735.47;5009930;28;45504;-76
2022/06/12 15:38:39;;;;;;;;;3.00;2.00;;;;;28.50;26.28;101742.97;5040833;28;45526;-77
2022/06/12 15:41:05;;;;;;;;;3.00;1.00;;;;;28.68;26.27;101748.44;5042199;28;45569;-77
2022/06/12 15:43:31;;;;;;;;;7.75;6.75;;;;;28.91;26.54;101753.28;5042615;28;45388;-77
2022/06/12 15:45:57;;;;;;;;;2.00;2.00;;;;;29.11;25.67;101750.22;5041487;28;45328;-78
2022/06/12 15:48:23;;;;;;;;;3.50;1.00;;;;;29.20;26.02;101743.72;5038996;28;45258;-76
2022/06/12 15:50:49;;;;;;;;;2.00;2.00;;;;;29.25;25.88;101746.84;5038046;28;45529;-77
2022/06/12 15:53:14;;;;;;;;;4.00;2.25;;;;;29.17;25.93;101741.31;5038839;28;45922;-77
2022/06/12 15:55:40;;;;;;;;;3.75;3.75;;;;;29.25;26.53;101742.19;5021209;28;45412;-77
2022/06/12 15:58:06;;;;;;;;;3.00;1.75;;;;;29.46;26.40;101738.13;5039813;28;45297;-77
2022/06/12 16:00:31;;;;;;;;;0.75;0.00;;;;;29.51;26.13;101733.84;5038964;28;45443;-76
2022/06/12 16:02:57;;;;;;;;;2.25;2.25;;;;;29.69;26.40;101739.19;5038437;28;45441;-77
2022/06/12 16:05:26;;;;;;;;;2.50;2.50;;;;;29.78;25.54;101752.00;5036944;28;45423;-77
2022/06/12 16:07:53;;;;;;;;;5.00;3.00;;;;;29.75;25.47;101745.97;5020110;28;45482;-77
2022/06/12 16:10:19;;;;;;;;;6.00;2.00;;;;;29.70;25.88;101718.81;5037488;28;45604;-77
2022/06/12 16:12:48;;;;;;;;;2.25;1.00;;;;;29.84;25.97;101742.16;5021257;28;47116;-76
2022/06/12 16:15:19;;;;;;;;;2.50;1.00;;;;;29.89;25.82;101745.28;5033673;28;45360;-78
2022/06/12 16:17:45;;;;;;;;;1.75;1.75;;;;;29.80;24.97;101715.88;5033974;28;45234;-77
2022/06/12 16:20:14;;;;;;;;;1.50;1.50;;;;;29.73;25.31;101719.34;5030446;28;45487;-77
2022/06/12 16:22:39;;;;;;;;;3.00;1.00;;;;;29.65;25.96;101726.75;5016946;28;46745;-77
2022/06/12 16:25:05;;;;;;;;;2.75;1.00;;;;;29.61;25.28;101714.31;5026323;28;45375;-77
2022/06/12 16:27:30;;;;;;;;;3.00;2.00;;;;;29.70;25.85;101710.53;5039017;28;45348;-77
2022/06/12 16:29:56;;;;;;;;;3.00;1.50;;;;;29.89;25.87;101714.84;5042407;28;45316;-76
2022/06/12 16:32:21;;;;;;;;;2.25;1.75;;;;;30.11;24.88;101724.41;5040054;28;45323;-77
2022/06/12 16:34:47;;;;;;;;;2.00;2.00;;;;;30.20;25.12;101724.19;5021531;28;45321;-78
2022/06/12 16:37:13;;;;;;;;;1.00;1.00;;;;;30.09;24.12;101714.38;5003776;28;45231;-78